sensor_id;sensor_type;location;lat;lon;timestamp;P1;durP1;ratioP1;P2;durP2;ratioP2
51883;SDS011;37915;53.254;6.598;2023-04-29T00:02:01;38.95;;;19.05;;
51883;SDS011;37915;53.254;6.598;2023-04-29T00:04:27;39.40;;;19.08;;
51883;SDS011;37915;53.254;6.598;2023-04-29T00:06:53;35.33;;;18.45;;
51883;SDS011;37915;53.254;6.598;2023-04-29T00:09:18;35.90;;;18.73;;
51883;SDS011;37915;53.254;6.598;2023-04-29T00:11:45;38.95;;;18.15;;
51883;SDS011;37915;53.254;6.598;2023-04-29T00:14:11;37.60;;;20.00;;
51883;SDS011;37915;53.254;6.598;2023-04-29T00:16:37;28.83;;;16.17;;
51883;SDS011;37915;53.254;6.598;2023-04-29T00:19:03;33.75;;;17.27;;
51883;SDS011;37915;53.254;6.598;2023-04-29T00:21:29;28.88;;;16.10;;
51883;SDS011;37915;53.254;6.598;2023-04-29T00:23:54;31.52;;;17.65;;
51883;SDS011;37915;53.254;6.598;2023-04-29T00:26:20;30.33;;;16.98;;
51883;SDS011;37915;53.254;6.598;2023-04-29T00:28:46;27.25;;;16.10;;
51883;SDS011;37915;53.254;6.598;2023-04-29T00:31:11;35.88;;;17.70;;
51883;SDS011;37915;53.254;6.598;2023-04-29T00:33:37;29.08;;;15.50;;
51883;SDS011;37915;53.254;6.598;2023-04-29T00:36:05;27.77;;;15.75;;
51883;SDS011;37915;53.254;6.598;2023-04-29T00:38:31;27.98;;;15.55;;
51883;SDS011;37915;53.254;6.598;2023-04-29T00:40:56;34.13;;;14.82;;
51883;SDS011;37915;53.254;6.598;2023-04-29T00:43:22;28.00;;;15.60;;
51883;SDS011;37915;53.254;6.598;2023-04-29T00:45:48;26.20;;;15.35;;
51883;SDS011;37915;53.254;6.598;2023-04-29T00:48:14;28.05;;;15.60;;
51883;SDS011;37915;53.254;6.598;2023-04-29T00:50:40;30.40;;;15.00;;
51883;SDS011;37915;53.254;6.598;2023-04-29T00:53:07;34.08;;;15.95;;
51883;SDS011;37915;53.254;6.598;2023-04-29T00:55:39;31.00;;;14.55;;
51883;SDS011;37915;53.254;6.598;2023-04-29T00:58:06;27.70;;;14.85;;
51883;SDS011;37915;53.254;6.598;2023-04-29T01:00:34;25.73;;;14.98;;
51883;SDS011;37915;53.254;6.598;2023-04-29T01:03:00;26.38;;;14.35;;
51883;SDS011;37915;53.254;6.598;2023-04-29T01:05:26;27.02;;;14.00;;
51883;SDS011;37915;53.254;6.598;2023-04-29T01:13:29;26.42;;;13.88;;
51883;SDS011;37915;53.254;6.598;2023-04-29T01:16:02;27.17;;;14.07;;
51883;SDS011;37915;53.254;6.598;2023-04-29T01:18:32;27.55;;;14.60;;
51883;SDS011;37915;53.254;6.598;2023-04-29T01:21:07;27.05;;;14.95;;
51883;SDS011;37915;53.254;6.598;2023-04-29T01:23:33;25.58;;;14.80;;
51883;SDS011;37915;53.254;6.598;2023-04-29T01:25:58;37.17;;;15.45;;
51883;SDS011;37915;53.254;6.598;2023-04-29T01:33:27;32.17;;;15.88;;
51883;SDS011;37915;53.254;6.598;2023-04-29T01:44:07;28.02;;;15.43;;
51883;SDS011;37915;53.254;6.598;2023-04-29T01:46:46;22.55;;;15.00;;
51883;SDS011;37915;53.254;6.598;2023-04-29T01:49:15;28.25;;;15.02;;
51883;SDS011;37915;53.254;6.598;2023-04-29T01:51:43;26.33;;;14.45;;
51883;SDS011;37915;53.254;6.598;2023-04-29T01:54:09;29.58;;;15.43;;
51883;SDS011;37915;53.254;6.598;2023-04-29T01:56:35;27.42;;;16.02;;
51883;SDS011;37915;53.254;6.598;2023-04-29T01:59:01;26.27;;;15.90;;
51883;SDS011;37915;53.254;6.598;2023-04-29T02:01:26;25.58;;;15.85;;
51883;SDS011;37915;53.254;6.598;2023-04-29T02:03:52;28.90;;;15.60;;
51883;SDS011;37915;53.254;6.598;2023-04-29T02:06:18;29.05;;;15.88;;
51883;SDS011;37915;53.254;6.598;2023-04-29T02:08:44;30.02;;;16.60;;
51883;SDS011;37915;53.254;6.598;2023-04-29T02:11:09;31.55;;;16.40;;
51883;SDS011;37915;53.254;6.598;2023-04-29T02:13:35;27.65;;;15.05;;
51883;SDS011;37915;53.254;6.598;2023-04-29T02:16:11;29.67;;;15.43;;
51883;SDS011;37915;53.254;6.598;2023-04-29T02:18:37;30.50;;;14.43;;
51883;SDS011;37915;53.254;6.598;2023-04-29T02:21:04;28.92;;;15.00;;
51883;SDS011;37915;53.254;6.598;2023-04-29T02:23:35;35.55;;;14.25;;
51883;SDS011;37915;53.254;6.598;2023-04-29T02:26:07;24.45;;;14.55;;
51883;SDS011;37915;53.254;6.598;2023-04-29T02:28:33;31.75;;;14.68;;
51883;SDS011;37915;53.254;6.598;2023-04-29T02:30:59;26.17;;;15.30;;
51883;SDS011;37915;53.254;6.598;2023-04-29T02:33:25;26.30;;;14.10;;
51883;SDS011;37915;53.254;6.598;2023-04-29T02:35:51;33.17;;;15.70;;
51883;SDS011;37915;53.254;6.598;2023-04-29T02:38:16;33.35;;;15.18;;
51883;SDS011;37915;53.254;6.598;2023-04-29T02:40:43;30.35;;;14.98;;
51883;SDS011;37915;53.254;6.598;2023-04-29T02:43:09;27.73;;;15.80;;
51883;SDS011;37915;53.254;6.598;2023-04-29T02:45:36;32.55;;;16.35;;
51883;SDS011;37915;53.254;6.598;2023-04-29T02:48:02;31.23;;;15.27;;
51883;SDS011;37915;53.254;6.598;2023-04-29T02:50:29;30.00;;;16.15;;
51883;SDS011;37915;53.254;6.598;2023-04-29T02:52:54;23.75;;;14.32;;
51883;SDS011;37915;53.254;6.598;2023-04-29T02:55:20;30.88;;;15.15;;
51883;SDS011;37915;53.254;6.598;2023-04-29T02:57:48;26.83;;;14.63;;
51883;SDS011;37915;53.254;6.598;2023-04-29T03:00:14;27.48;;;13.77;;
51883;SDS011;37915;53.254;6.598;2023-04-29T03:02:48;24.90;;;14.02;;
51883;SDS011;37915;53.254;6.598;2023-04-29T03:05:14;31.27;;;14.30;;
51883;SDS011;37915;53.254;6.598;2023-04-29T03:07:42;27.60;;;13.70;;
51883;SDS011;37915;53.254;6.598;2023-04-29T03:10:08;26.70;;;12.90;;
51883;SDS011;37915;53.254;6.598;2023-04-29T03:12:36;23.95;;;14.10;;
51883;SDS011;37915;53.254;6.598;2023-04-29T03:15:03;24.88;;;12.90;;
51883;SDS011;37915;53.254;6.598;2023-04-29T03:17:34;22.60;;;13.38;;
51883;SDS011;37915;53.254;6.598;2023-04-29T03:20:00;24.08;;;13.43;;
51883;SDS011;37915;53.254;6.598;2023-04-29T03:22:26;23.30;;;12.10;;
51883;SDS011;37915;53.254;6.598;2023-04-29T03:24:52;26.50;;;12.30;;
51883;SDS011;37915;53.254;6.598;2023-04-29T03:27:18;27.52;;;12.45;;
51883;SDS011;37915;53.254;6.598;2023-04-29T03:29:49;23.52;;;13.00;;
51883;SDS011;37915;53.254;6.598;2023-04-29T03:32:20;27.17;;;12.43;;
51883;SDS011;37915;53.254;6.598;2023-04-29T03:34:45;25.90;;;12.88;;
51883;SDS011;37915;53.254;6.598;2023-04-29T03:37:11;26.67;;;11.82;;
51883;SDS011;37915;53.254;6.598;2023-04-29T03:39:40;22.65;;;11.75;;
51883;SDS011;37915;53.254;6.598;2023-04-29T03:42:08;27.27;;;12.02;;
51883;SDS011;37915;53.254;6.598;2023-04-29T03:44:37;20.80;;;11.18;;
51883;SDS011;37915;53.254;6.598;2023-04-29T03:47:05;20.45;;;11.38;;
51883;SDS011;37915;53.254;6.598;2023-04-29T03:49:31;17.73;;;10.30;;
51883;SDS011;37915;53.254;6.598;2023-04-29T03:51:56;21.80;;;10.80;;
51883;SDS011;37915;53.254;6.598;2023-04-29T03:54:25;19.05;;;10.23;;
51883;SDS011;37915;53.254;6.598;2023-04-29T03:56:51;22.33;;;10.35;;
51883;SDS011;37915;53.254;6.598;2023-04-29T03:59:16;22.20;;;11.35;;
51883;SDS011;37915;53.254;6.598;2023-04-29T04:01:42;21.98;;;11.85;;
51883;SDS011;37915;53.254;6.598;2023-04-29T04:04:08;20.80;;;10.38;;
51883;SDS011;37915;53.254;6.598;2023-04-29T04:06:36;21.15;;;10.10;;
51883;SDS011;37915;53.254;6.598;2023-04-29T04:09:03;19.60;;;11.20;;
51883;SDS011;37915;53.254;6.598;2023-04-29T04:11:29;22.85;;;9.82;;
51883;SDS011;37915;53.254;6.598;2023-04-29T04:13:54;21.42;;;10.93;;
51883;SDS011;37915;53.254;6.598;2023-04-29T04:16:20;24.70;;;11.07;;
51883;SDS011;37915;53.254;6.598;2023-04-29T04:18:46;26.25;;;11.13;;
51883;SDS011;37915;53.254;6.598;2023-04-29T04:21:12;23.15;;;11.07;;
51883;SDS011;37915;53.254;6.598;2023-04-29T04:23:37;18.58;;;11.23;;
51883;SDS011;37915;53.254;6.598;2023-04-29T04:26:09;22.23;;;11.15;;
51883;SDS011;37915;53.254;6.598;2023-04-29T04:28:34;20.70;;;11.73;;
51883;SDS011;37915;53.254;6.598;2023-04-29T04:31:00;21.25;;;11.98;;
51883;SDS011;37915;53.254;6.598;2023-04-29T04:33:26;19.98;;;11.52;;
51883;SDS011;37915;53.254;6.598;2023-04-29T04:35:52;20.50;;;11.27;;
51883;SDS011;37915;53.254;6.598;2023-04-29T04:38:18;21.90;;;10.80;;
51883;SDS011;37915;53.254;6.598;2023-04-29T04:40:44;21.50;;;12.45;;
51883;SDS011;37915;53.254;6.598;2023-04-29T04:43:11;20.70;;;10.95;;
51883;SDS011;37915;53.254;6.598;2023-04-29T04:45:37;24.33;;;10.55;;
51883;SDS011;37915;53.254;6.598;2023-04-29T04:48:03;20.92;;;10.88;;
51883;SDS011;37915;53.254;6.598;2023-04-29T04:50:29;22.45;;;10.45;;
51883;SDS011;37915;53.254;6.598;2023-04-29T04:52:55;24.83;;;11.70;;
51883;SDS011;37915;53.254;6.598;2023-04-29T04:55:21;22.10;;;10.23;;
51883;SDS011;37915;53.254;6.598;2023-04-29T04:57:47;20.58;;;10.68;;
51883;SDS011;37915;53.254;6.598;2023-04-29T05:00:13;20.48;;;11.00;;
51883;SDS011;37915;53.254;6.598;2023-04-29T05:02:39;17.27;;;11.05;;
51883;SDS011;37915;53.254;6.598;2023-04-29T05:05:05;19.17;;;11.13;;
51883;SDS011;37915;53.254;6.598;2023-04-29T05:07:34;22.20;;;10.80;;
51883;SDS011;37915;53.254;6.598;2023-04-29T05:10:02;23.23;;;11.52;;
51883;SDS011;37915;53.254;6.598;2023-04-29T05:12:31;20.65;;;11.55;;
51883;SDS011;37915;53.254;6.598;2023-04-29T05:14:59;19.92;;;10.77;;
51883;SDS011;37915;53.254;6.598;2023-04-29T05:17:25;20.88;;;11.00;;
51883;SDS011;37915;53.254;6.598;2023-04-29T05:19:51;21.05;;;11.23;;
51883;SDS011;37915;53.254;6.598;2023-04-29T05:22:17;18.80;;;10.05;;
51883;SDS011;37915;53.254;6.598;2023-04-29T05:24:43;20.55;;;9.82;;
51883;SDS011;37915;53.254;6.598;2023-04-29T05:27:08;19.67;;;10.88;;
51883;SDS011;37915;53.254;6.598;2023-04-29T05:29:34;20.52;;;10.57;;
51883;SDS011;37915;53.254;6.598;2023-04-29T05:32:03;18.63;;;9.68;;
51883;SDS011;37915;53.254;6.598;2023-04-29T05:34:29;21.63;;;10.77;;
51883;SDS011;37915;53.254;6.598;2023-04-29T05:36:55;16.73;;;9.40;;
51883;SDS011;37915;53.254;6.598;2023-04-29T05:39:21;21.40;;;11.02;;
51883;SDS011;37915;53.254;6.598;2023-04-29T05:41:47;17.40;;;10.50;;
51883;SDS011;37915;53.254;6.598;2023-04-29T05:44:13;21.17;;;10.20;;
51883;SDS011;37915;53.254;6.598;2023-04-29T05:46:38;19.73;;;9.05;;
51883;SDS011;37915;53.254;6.598;2023-04-29T05:49:04;19.02;;;9.77;;
51883;SDS011;37915;53.254;6.598;2023-04-29T05:51:30;19.27;;;10.45;;
51883;SDS011;37915;53.254;6.598;2023-04-29T05:53:56;16.92;;;9.63;;
51883;SDS011;37915;53.254;6.598;2023-04-29T05:56:23;15.52;;;9.43;;
51883;SDS011;37915;53.254;6.598;2023-04-29T05:58:49;17.00;;;9.57;;
51883;SDS011;37915;53.254;6.598;2023-04-29T06:01:16;15.63;;;9.60;;
51883;SDS011;37915;53.254;6.598;2023-04-29T06:03:42;17.60;;;9.30;;
51883;SDS011;37915;53.254;6.598;2023-04-29T06:06:08;20.17;;;9.77;;
51883;SDS011;37915;53.254;6.598;2023-04-29T06:08:34;14.55;;;9.52;;
51883;SDS011;37915;53.254;6.598;2023-04-29T06:11:00;17.80;;;10.05;;
51883;SDS011;37915;53.254;6.598;2023-04-29T06:13:27;17.98;;;9.30;;
51883;SDS011;37915;53.254;6.598;2023-04-29T06:15:54;17.95;;;9.98;;
51883;SDS011;37915;53.254;6.598;2023-04-29T06:18:20;18.25;;;8.90;;
51883;SDS011;37915;53.254;6.598;2023-04-29T06:20:48;15.95;;;9.25;;
51883;SDS011;37915;53.254;6.598;2023-04-29T06:23:13;15.98;;;8.95;;
51883;SDS011;37915;53.254;6.598;2023-04-29T06:25:39;15.25;;;8.73;;
51883;SDS011;37915;53.254;6.598;2023-04-29T06:28:05;15.85;;;9.38;;
51883;SDS011;37915;53.254;6.598;2023-04-29T06:30:32;15.70;;;9.57;;
51883;SDS011;37915;53.254;6.598;2023-04-29T06:32:58;17.23;;;9.60;;
51883;SDS011;37915;53.254;6.598;2023-04-29T06:35:24;16.30;;;8.63;;
51883;SDS011;37915;53.254;6.598;2023-04-29T06:37:50;13.05;;;8.60;;
51883;SDS011;37915;53.254;6.598;2023-04-29T06:40:16;18.67;;;9.52;;
51883;SDS011;37915;53.254;6.598;2023-04-29T06:42:42;13.93;;;8.00;;
51883;SDS011;37915;53.254;6.598;2023-04-29T06:45:08;14.93;;;8.20;;
51883;SDS011;37915;53.254;6.598;2023-04-29T06:47:34;14.98;;;8.75;;
51883;SDS011;37915;53.254;6.598;2023-04-29T06:50:00;15.27;;;8.15;;
51883;SDS011;37915;53.254;6.598;2023-04-29T06:52:26;13.93;;;8.30;;
51883;SDS011;37915;53.254;6.598;2023-04-29T06:54:51;16.58;;;9.10;;
51883;SDS011;37915;53.254;6.598;2023-04-29T06:57:17;11.25;;;7.03;;
51883;SDS011;37915;53.254;6.598;2023-04-29T06:59:43;15.48;;;8.85;;
51883;SDS011;37915;53.254;6.598;2023-04-29T07:02:08;13.82;;;8.65;;
51883;SDS011;37915;53.254;6.598;2023-04-29T07:04:34;13.40;;;8.65;;
51883;SDS011;37915;53.254;6.598;2023-04-29T07:07:01;21.08;;;8.20;;
51883;SDS011;37915;53.254;6.598;2023-04-29T07:09:27;15.73;;;8.73;;
51883;SDS011;37915;53.254;6.598;2023-04-29T07:11:53;15.10;;;8.32;;
51883;SDS011;37915;53.254;6.598;2023-04-29T07:14:19;12.48;;;7.38;;
51883;SDS011;37915;53.254;6.598;2023-04-29T07:16:47;16.17;;;7.78;;
51883;SDS011;37915;53.254;6.598;2023-04-29T07:19:16;15.07;;;6.65;;
51883;SDS011;37915;53.254;6.598;2023-04-29T07:21:42;16.30;;;6.80;;
51883;SDS011;37915;53.254;6.598;2023-04-29T07:24:08;15.70;;;6.90;;
51883;SDS011;37915;53.254;6.598;2023-04-29T07:26:33;13.63;;;6.00;;
51883;SDS011;37915;53.254;6.598;2023-04-29T07:28:59;11.63;;;5.95;;
51883;SDS011;37915;53.254;6.598;2023-04-29T07:31:25;10.80;;;5.97;;
51883;SDS011;37915;53.254;6.598;2023-04-29T07:33:51;13.10;;;6.95;;
51883;SDS011;37915;53.254;6.598;2023-04-29T07:36:17;13.98;;;5.82;;
51883;SDS011;37915;53.254;6.598;2023-04-29T07:38:42;13.65;;;6.45;;
51883;SDS011;37915;53.254;6.598;2023-04-29T07:41:08;15.65;;;6.13;;
51883;SDS011;37915;53.254;6.598;2023-04-29T07:43:34;9.25;;;5.63;;
51883;SDS011;37915;53.254;6.598;2023-04-29T07:46:00;15.00;;;6.15;;
51883;SDS011;37915;53.254;6.598;2023-04-29T07:48:26;12.57;;;5.93;;
51883;SDS011;37915;53.254;6.598;2023-04-29T07:50:51;18.67;;;6.78;;
51883;SDS011;37915;53.254;6.598;2023-04-29T07:53:17;11.48;;;6.10;;
51883;SDS011;37915;53.254;6.598;2023-04-29T07:55:43;17.05;;;6.05;;
51883;SDS011;37915;53.254;6.598;2023-04-29T07:58:08;14.75;;;6.10;;
51883;SDS011;37915;53.254;6.598;2023-04-29T08:00:34;13.48;;;6.35;;
51883;SDS011;37915;53.254;6.598;2023-04-29T08:03:00;13.43;;;6.35;;
51883;SDS011;37915;53.254;6.598;2023-04-29T08:05:26;13.43;;;5.97;;
51883;SDS011;37915;53.254;6.598;2023-04-29T08:07:54;14.02;;;7.13;;
51883;SDS011;37915;53.254;6.598;2023-04-29T08:10:20;12.27;;;5.70;;
51883;SDS011;37915;53.254;6.598;2023-04-29T08:12:49;15.02;;;6.20;;
51883;SDS011;37915;53.254;6.598;2023-04-29T08:15:15;9.45;;;6.00;;
51883;SDS011;37915;53.254;6.598;2023-04-29T08:17:42;12.27;;;6.47;;
51883;SDS011;37915;53.254;6.598;2023-04-29T08:20:08;11.13;;;6.60;;
51883;SDS011;37915;53.254;6.598;2023-04-29T08:22:34;12.18;;;6.30;;
51883;SDS011;37915;53.254;6.598;2023-04-29T08:25:00;12.38;;;6.18;;
51883;SDS011;37915;53.254;6.598;2023-04-29T08:27:29;11.98;;;5.47;;
51883;SDS011;37915;53.254;6.598;2023-04-29T08:29:55;13.45;;;5.85;;
51883;SDS011;37915;53.254;6.598;2023-04-29T08:32:21;14.73;;;6.40;;
51883;SDS011;37915;53.254;6.598;2023-04-29T08:34:46;11.05;;;5.80;;
51883;SDS011;37915;53.254;6.598;2023-04-29T08:37:12;14.60;;;5.78;;
51883;SDS011;37915;53.254;6.598;2023-04-29T08:39:39;11.57;;;5.38;;
51883;SDS011;37915;53.254;6.598;2023-04-29T08:42:08;10.82;;;5.05;;
51883;SDS011;37915;53.254;6.598;2023-04-29T08:44:34;9.43;;;4.75;;
51883;SDS011;37915;53.254;6.598;2023-04-29T08:47:01;11.55;;;5.50;;
51883;SDS011;37915;53.254;6.598;2023-04-29T08:49:30;10.50;;;4.90;;
51883;SDS011;37915;53.254;6.598;2023-04-29T08:51:57;8.85;;;4.40;;
51883;SDS011;37915;53.254;6.598;2023-04-29T08:54:23;24.75;;;5.65;;
51883;SDS011;37915;53.254;6.598;2023-04-29T08:56:49;8.55;;;4.00;;
51883;SDS011;37915;53.254;6.598;2023-04-29T08:59:16;9.10;;;3.70;;
51883;SDS011;37915;53.254;6.598;2023-04-29T09:01:44;10.07;;;3.72;;
51883;SDS011;37915;53.254;6.598;2023-04-29T09:04:33;11.30;;;3.75;;
51883;SDS011;37915;53.254;6.598;2023-04-29T09:07:07;9.85;;;4.32;;
51883;SDS011;37915;53.254;6.598;2023-04-29T09:09:35;8.55;;;3.67;;
51883;SDS011;37915;53.254;6.598;2023-04-29T09:12:01;9.07;;;3.85;;
51883;SDS011;37915;53.254;6.598;2023-04-29T09:14:27;8.93;;;3.78;;
51883;SDS011;37915;53.254;6.598;2023-04-29T09:16:57;9.02;;;3.97;;
51883;SDS011;37915;53.254;6.598;2023-04-29T09:19:31;8.00;;;3.85;;
51883;SDS011;37915;53.254;6.598;2023-04-29T09:21:58;8.20;;;3.97;;
51883;SDS011;37915;53.254;6.598;2023-04-29T09:24:27;12.57;;;4.35;;
51883;SDS011;37915;53.254;6.598;2023-04-29T09:26:55;10.23;;;4.35;;
51883;SDS011;37915;53.254;6.598;2023-04-29T09:29:21;8.02;;;4.20;;
51883;SDS011;37915;53.254;6.598;2023-04-29T09:31:48;19.40;;;5.43;;
51883;SDS011;37915;53.254;6.598;2023-04-29T09:34:14;8.40;;;4.80;;
51883;SDS011;37915;53.254;6.598;2023-04-29T09:36:44;8.45;;;4.90;;
51883;SDS011;37915;53.254;6.598;2023-04-29T09:39:18;8.60;;;4.28;;
51883;SDS011;37915;53.254;6.598;2023-04-29T09:44:27;10.45;;;5.20;;
51883;SDS011;37915;53.254;6.598;2023-04-29T09:46:59;7.18;;;3.40;;
51883;SDS011;37915;53.254;6.598;2023-04-29T09:49:28;10.05;;;4.60;;
51883;SDS011;37915;53.254;6.598;2023-04-29T09:52:08;11.38;;;5.03;;
51883;SDS011;37915;53.254;6.598;2023-04-29T09:54:35;9.23;;;4.70;;
51883;SDS011;37915;53.254;6.598;2023-04-29T09:57:02;10.50;;;5.15;;
51883;SDS011;37915;53.254;6.598;2023-04-29T09:59:36;11.65;;;5.32;;
51883;SDS011;37915;53.254;6.598;2023-04-29T10:02:14;13.18;;;5.28;;
51883;SDS011;37915;53.254;6.598;2023-04-29T10:04:43;8.93;;;5.32;;
51883;SDS011;37915;53.254;6.598;2023-04-29T10:07:14;11.55;;;6.28;;
51883;SDS011;37915;53.254;6.598;2023-04-29T10:09:41;9.05;;;5.20;;
51883;SDS011;37915;53.254;6.598;2023-04-29T10:12:13;9.45;;;6.07;;
51883;SDS011;37915;53.254;6.598;2023-04-29T10:14:47;11.15;;;5.88;;
51883;SDS011;37915;53.254;6.598;2023-04-29T10:17:48;11.45;;;5.55;;
51883;SDS011;37915;53.254;6.598;2023-04-29T10:20:25;14.35;;;6.18;;
51883;SDS011;37915;53.254;6.598;2023-04-29T10:22:52;10.07;;;4.65;;
51883;SDS011;37915;53.254;6.598;2023-04-29T10:25:20;13.48;;;5.78;;
51883;SDS011;37915;53.254;6.598;2023-04-29T10:27:48;10.48;;;5.20;;
51883;SDS011;37915;53.254;6.598;2023-04-29T10:30:18;8.13;;;4.85;;
51883;SDS011;37915;53.254;6.598;2023-04-29T10:32:45;10.07;;;4.80;;
51883;SDS011;37915;53.254;6.598;2023-04-29T10:35:13;9.95;;;4.28;;
51883;SDS011;37915;53.254;6.598;2023-04-29T10:37:39;11.98;;;3.15;;
51883;SDS011;37915;53.254;6.598;2023-04-29T10:42:36;11.05;;;3.13;;
51883;SDS011;37915;53.254;6.598;2023-04-29T10:45:17;6.55;;;2.70;;
51883;SDS011;37915;53.254;6.598;2023-04-29T10:50:30;7.65;;;3.58;;
51883;SDS011;37915;53.254;6.598;2023-04-29T10:53:00;7.85;;;3.28;;
51883;SDS011;37915;53.254;6.598;2023-04-29T10:55:26;5.30;;;2.65;;
51883;SDS011;37915;53.254;6.598;2023-04-29T10:57:52;5.85;;;2.67;;
51883;SDS011;37915;53.254;6.598;2023-04-29T11:00:21;5.55;;;2.30;;
51883;SDS011;37915;53.254;6.598;2023-04-29T11:02:55;13.50;;;2.83;;
51883;SDS011;37915;53.254;6.598;2023-04-29T11:05:31;5.45;;;2.72;;
51883;SDS011;37915;53.254;6.598;2023-04-29T11:08:07;6.60;;;2.55;;
51883;SDS011;37915;53.254;6.598;2023-04-29T11:10:36;8.50;;;2.40;;
51883;SDS011;37915;53.254;6.598;2023-04-29T11:15:50;9.95;;;2.67;;
51883;SDS011;37915;53.254;6.598;2023-04-29T11:18:17;5.50;;;1.90;;
51883;SDS011;37915;53.254;6.598;2023-04-29T11:23:37;8.18;;;2.33;;
51883;SDS011;37915;53.254;6.598;2023-04-29T11:26:05;6.35;;;3.00;;
51883;SDS011;37915;53.254;6.598;2023-04-29T11:28:31;7.45;;;2.90;;
51883;SDS011;37915;53.254;6.598;2023-04-29T11:30:57;6.72;;;2.88;;
51883;SDS011;37915;53.254;6.598;2023-04-29T11:33:24;6.80;;;2.90;;
51883;SDS011;37915;53.254;6.598;2023-04-29T11:35:51;5.57;;;2.22;;
51883;SDS011;37915;53.254;6.598;2023-04-29T11:38:22;5.05;;;2.47;;
51883;SDS011;37915;53.254;6.598;2023-04-29T11:40:50;6.45;;;2.42;;
51883;SDS011;37915;53.254;6.598;2023-04-29T11:43:16;5.68;;;2.63;;
51883;SDS011;37915;53.254;6.598;2023-04-29T11:45:45;5.63;;;2.53;;
51883;SDS011;37915;53.254;6.598;2023-04-29T11:48:24;6.55;;;2.78;;
51883;SDS011;37915;53.254;6.598;2023-04-29T11:50:56;6.57;;;2.92;;
51883;SDS011;37915;53.254;6.598;2023-04-29T11:53:23;6.57;;;2.17;;
51883;SDS011;37915;53.254;6.598;2023-04-29T11:55:54;8.75;;;2.80;;
51883;SDS011;37915;53.254;6.598;2023-04-29T11:58:20;5.03;;;2.60;;
51883;SDS011;37915;53.254;6.598;2023-04-29T12:00:47;6.50;;;2.70;;
51883;SDS011;37915;53.254;6.598;2023-04-29T12:03:14;6.05;;;2.30;;
51883;SDS011;37915;53.254;6.598;2023-04-29T12:05:50;4.28;;;2.35;;
51883;SDS011;37915;53.254;6.598;2023-04-29T12:10:50;3.90;;;2.13;;
51883;SDS011;37915;53.254;6.598;2023-04-29T12:13:17;3.78;;;2.22;;
51883;SDS011;37915;53.254;6.598;2023-04-29T12:15:44;4.22;;;2.05;;
51883;SDS011;37915;53.254;6.598;2023-04-29T12:18:11;4.95;;;2.10;;
51883;SDS011;37915;53.254;6.598;2023-04-29T12:20:38;5.65;;;2.20;;
51883;SDS011;37915;53.254;6.598;2023-04-29T12:23:11;6.03;;;2.13;;
51883;SDS011;37915;53.254;6.598;2023-04-29T12:25:37;5.88;;;2.10;;
51883;SDS011;37915;53.254;6.598;2023-04-29T12:28:05;6.20;;;2.00;;
51883;SDS011;37915;53.254;6.598;2023-04-29T12:30:37;5.18;;;2.00;;
51883;SDS011;37915;53.254;6.598;2023-04-29T12:33:03;5.47;;;2.13;;
51883;SDS011;37915;53.254;6.598;2023-04-29T12:35:28;5.10;;;1.90;;
51883;SDS011;37915;53.254;6.598;2023-04-29T12:37:57;8.73;;;2.35;;
51883;SDS011;37915;53.254;6.598;2023-04-29T12:40:23;3.78;;;1.83;;
51883;SDS011;37915;53.254;6.598;2023-04-29T12:42:49;4.55;;;1.35;;
51883;SDS011;37915;53.254;6.598;2023-04-29T12:45:30;5.45;;;1.80;;
51883;SDS011;37915;53.254;6.598;2023-04-29T12:47:57;3.83;;;1.67;;
51883;SDS011;37915;53.254;6.598;2023-04-29T12:50:35;3.58;;;1.90;;
51883;SDS011;37915;53.254;6.598;2023-04-29T12:53:03;3.03;;;1.58;;
51883;SDS011;37915;53.254;6.598;2023-04-29T12:55:33;5.90;;;1.85;;
51883;SDS011;37915;53.254;6.598;2023-04-29T12:58:00;4.20;;;2.33;;
51883;SDS011;37915;53.254;6.598;2023-04-29T13:00:27;4.57;;;2.20;;
51883;SDS011;37915;53.254;6.598;2023-04-29T13:02:52;5.40;;;2.40;;
51883;SDS011;37915;53.254;6.598;2023-04-29T13:05:18;5.25;;;2.90;;
51883;SDS011;37915;53.254;6.598;2023-04-29T13:07:44;6.43;;;2.97;;
51883;SDS011;37915;53.254;6.598;2023-04-29T13:10:10;7.20;;;3.85;;
51883;SDS011;37915;53.254;6.598;2023-04-29T13:12:39;8.27;;;3.20;;
51883;SDS011;37915;53.254;6.598;2023-04-29T13:15:05;7.38;;;3.40;;
51883;SDS011;37915;53.254;6.598;2023-04-29T13:17:35;7.05;;;3.85;;
51883;SDS011;37915;53.254;6.598;2023-04-29T13:20:02;9.02;;;4.38;;
51883;SDS011;37915;53.254;6.598;2023-04-29T13:22:29;6.65;;;3.92;;
51883;SDS011;37915;53.254;6.598;2023-04-29T13:24:55;6.63;;;4.13;;
51883;SDS011;37915;53.254;6.598;2023-04-29T13:27:21;10.32;;;4.43;;
51883;SDS011;37915;53.254;6.598;2023-04-29T13:29:46;8.60;;;5.25;;
51883;SDS011;37915;53.254;6.598;2023-04-29T13:32:12;7.88;;;5.22;;
51883;SDS011;37915;53.254;6.598;2023-04-29T13:34:38;7.97;;;5.40;;
51883;SDS011;37915;53.254;6.598;2023-04-29T13:37:07;7.50;;;4.70;;
51883;SDS011;37915;53.254;6.598;2023-04-29T13:39:33;8.98;;;5.07;;
51883;SDS011;37915;53.254;6.598;2023-04-29T13:41:59;10.30;;;5.20;;
51883;SDS011;37915;53.254;6.598;2023-04-29T13:44:25;8.02;;;5.10;;
51883;SDS011;37915;53.254;6.598;2023-04-29T13:46:51;9.57;;;5.47;;
51883;SDS011;37915;53.254;6.598;2023-04-29T13:49:17;7.82;;;4.90;;
51883;SDS011;37915;53.254;6.598;2023-04-29T13:51:42;7.72;;;4.45;;
51883;SDS011;37915;53.254;6.598;2023-04-29T13:54:08;8.20;;;4.78;;
51883;SDS011;37915;53.254;6.598;2023-04-29T13:56:34;8.82;;;5.18;;
51883;SDS011;37915;53.254;6.598;2023-04-29T13:58:59;6.85;;;4.55;;
51883;SDS011;37915;53.254;6.598;2023-04-29T14:01:25;8.30;;;4.88;;
51883;SDS011;37915;53.254;6.598;2023-04-29T14:03:51;9.50;;;5.40;;
51883;SDS011;37915;53.254;6.598;2023-04-29T14:06:17;8.07;;;4.78;;
51883;SDS011;37915;53.254;6.598;2023-04-29T14:08:43;7.90;;;3.75;;
51883;SDS011;37915;53.254;6.598;2023-04-29T14:11:10;7.20;;;3.90;;
51883;SDS011;37915;53.254;6.598;2023-04-29T14:13:35;6.38;;;3.90;;
51883;SDS011;37915;53.254;6.598;2023-04-29T14:16:01;6.88;;;3.70;;
51883;SDS011;37915;53.254;6.598;2023-04-29T14:18:29;5.18;;;3.05;;
51883;SDS011;37915;53.254;6.598;2023-04-29T14:20:55;6.75;;;3.70;;
51883;SDS011;37915;53.254;6.598;2023-04-29T14:23:23;8.30;;;3.85;;
51883;SDS011;37915;53.254;6.598;2023-04-29T14:25:49;7.03;;;4.00;;
51883;SDS011;37915;53.254;6.598;2023-04-29T14:28:15;5.57;;;3.40;;
51883;SDS011;37915;53.254;6.598;2023-04-29T14:30:41;6.53;;;3.75;;
51883;SDS011;37915;53.254;6.598;2023-04-29T14:33:07;6.28;;;3.38;;
51883;SDS011;37915;53.254;6.598;2023-04-29T14:35:33;6.70;;;3.47;;
51883;SDS011;37915;53.254;6.598;2023-04-29T14:37:59;7.43;;;2.97;;
51883;SDS011;37915;53.254;6.598;2023-04-29T14:40:25;6.78;;;2.70;;
51883;SDS011;37915;53.254;6.598;2023-04-29T14:42:51;6.38;;;2.90;;
51883;SDS011;37915;53.254;6.598;2023-04-29T14:45:17;5.00;;;2.70;;
51883;SDS011;37915;53.254;6.598;2023-04-29T14:47:43;5.15;;;2.30;;
51883;SDS011;37915;53.254;6.598;2023-04-29T14:50:08;4.70;;;2.53;;
51883;SDS011;37915;53.254;6.598;2023-04-29T14:52:34;4.95;;;2.67;;
51883;SDS011;37915;53.254;6.598;2023-04-29T14:55:00;5.75;;;3.10;;
51883;SDS011;37915;53.254;6.598;2023-04-29T14:57:26;5.90;;;2.85;;
51883;SDS011;37915;53.254;6.598;2023-04-29T14:59:54;5.15;;;2.92;;
51883;SDS011;37915;53.254;6.598;2023-04-29T15:02:20;5.13;;;2.60;;
51883;SDS011;37915;53.254;6.598;2023-04-29T15:04:45;6.55;;;2.92;;
51883;SDS011;37915;53.254;6.598;2023-04-29T15:07:11;5.82;;;3.10;;
51883;SDS011;37915;53.254;6.598;2023-04-29T15:09:37;8.52;;;3.50;;